sensor_id;sensor_type;location;lat;lon;timestamp;temperature;humidity
56542;DHT22;42438;53.174;6.730;2024-03-17T00:01:47;4.80;99.90
56542;DHT22;42438;53.174;6.730;2024-03-17T00:04:17;4.40;99.90
56542;DHT22;42438;53.174;6.730;2024-03-17T00:06:49;4.60;99.90
56542;DHT22;42438;53.174;6.730;2024-03-17T00:09:19;4.30;99.90
56542;DHT22;42438;53.174;6.730;2024-03-17T00:11:50;4.20;99.90
56542;DHT22;42438;53.174;6.730;2024-03-17T00:14:21;4.60;99.90
56542;DHT22;42438;53.174;6.730;2024-03-17T00:16:52;4.30;99.90
56542;DHT22;42438;53.174;6.730;2024-03-17T00:19:25;4.30;99.90
56542;DHT22;42438;53.174;6.730;2024-03-17T00:21:56;3.20;99.90
56542;DHT22;42438;53.174;6.730;2024-03-17T00:24:27;4.00;99.90
56542;DHT22;42438;53.174;6.730;2024-03-17T00:27:05;4.40;99.90
56542;DHT22;42438;53.174;6.730;2024-03-17T00:29:35;3.90;99.90
56542;DHT22;42438;53.174;6.730;2024-03-17T00:32:06;5.50;99.90
56542;DHT22;42438;53.174;6.730;2024-03-17T00:34:37;3.90;99.90
56542;DHT22;42438;53.174;6.730;2024-03-17T00:37:07;4.10;1.00
56542;DHT22;42438;53.174;6.730;2024-03-17T00:39:38;4.10;1.00
56542;DHT22;42438;53.174;6.730;2024-03-17T00:42:08;3.70;1.00
56542;DHT22;42438;53.174;6.730;2024-03-17T00:44:39;4.10;1.00
56542;DHT22;42438;53.174;6.730;2024-03-17T00:47:09;4.10;1.00
56542;DHT22;42438;53.174;6.730;2024-03-17T00:49:40;4.00;15.00
56542;DHT22;42438;53.174;6.730;2024-03-17T00:52:10;3.80;28.30
56542;DHT22;42438;53.174;6.730;2024-03-17T00:54:41;3.60;91.70
56542;DHT22;42438;53.174;6.730;2024-03-17T00:57:12;3.90;99.90
56542;DHT22;42438;53.174;6.730;2024-03-17T00:59:42;3.80;99.90
56542;DHT22;42438;53.174;6.730;2024-03-17T01:02:16;3.50;99.90
56542;DHT22;42438;53.174;6.730;2024-03-17T01:04:47;3.80;99.90
56542;DHT22;42438;53.174;6.730;2024-03-17T01:07:17;3.80;99.90
56542;DHT22;42438;53.174;6.730;2024-03-17T01:09:48;3.60;99.90
56542;DHT22;42438;53.174;6.730;2024-03-17T01:12:19;3.70;99.90
56542;DHT22;42438;53.174;6.730;2024-03-17T01:14:49;3.60;99.90
56542;DHT22;42438;53.174;6.730;2024-03-17T01:17:20;3.40;1.00
56542;DHT22;42438;53.174;6.730;2024-03-17T01:19:50;4.30;1.00
56542;DHT22;42438;53.174;6.730;2024-03-17T01:22:22;3.70;1.00
56542;DHT22;42438;53.174;6.730;2024-03-17T01:24:52;3.40;1.00
56542;DHT22;42438;53.174;6.730;2024-03-17T01:27:23;3.20;1.00
56542;DHT22;42438;53.174;6.730;2024-03-17T01:29:53;3.90;82.40
56542;DHT22;42438;53.174;6.730;2024-03-17T01:32:24;3.60;99.90
56542;DHT22;42438;53.174;6.730;2024-03-17T01:34:54;3.70;99.90
56542;DHT22;42438;53.174;6.730;2024-03-17T01:37:25;3.50;99.90
56542;DHT22;42438;53.174;6.730;2024-03-17T01:39:56;3.50;1.00
56542;DHT22;42438;53.174;6.730;2024-03-17T01:42:26;3.60;1.00
56542;DHT22;42438;53.174;6.730;2024-03-17T01:44:57;3.40;1.00
56542;DHT22;42438;53.174;6.730;2024-03-17T01:47:27;3.60;1.00
56542;DHT22;42438;53.174;6.730;2024-03-17T01:49:58;3.20;99.90
56542;DHT22;42438;53.174;6.730;2024-03-17T01:52:29;3.00;99.90
56542;DHT22;42438;53.174;6.730;2024-03-17T01:54:59;3.00;1.00
56542;DHT22;42438;53.174;6.730;2024-03-17T01:57:30;3.20;1.00
56542;DHT22;42438;53.174;6.730;2024-03-17T02:00:01;3.30;1.00
56542;DHT22;42438;53.174;6.730;2024-03-17T02:02:32;3.20;99.90
56542;DHT22;42438;53.174;6.730;2024-03-17T02:05:02;3.20;99.90
56542;DHT22;42438;53.174;6.730;2024-03-17T02:07:34;2.80;1.00
56542;DHT22;42438;53.174;6.730;2024-03-17T02:10:04;4.10;29.60
56542;DHT22;42438;53.174;6.730;2024-03-17T02:12:35;3.00;99.90
56542;DHT22;42438;53.174;6.730;2024-03-17T02:15:06;2.90;99.90
56542;DHT22;42438;53.174;6.730;2024-03-17T02:17:37;2.90;1.00
56542;DHT22;42438;53.174;6.730;2024-03-17T02:20:07;2.60;1.00
56542;DHT22;42438;53.174;6.730;2024-03-17T02:22:38;2.90;1.00
56542;DHT22;42438;53.174;6.730;2024-03-17T02:25:09;2.90;1.00
56542;DHT22;42438;53.174;6.730;2024-03-17T02:27:39;2.40;99.90
56542;DHT22;42438;53.174;6.730;2024-03-17T02:30:10;2.60;99.90
56542;DHT22;42438;53.174;6.730;2024-03-17T02:32:41;2.80;99.90
56542;DHT22;42438;53.174;6.730;2024-03-17T02:35:11;2.40;99.90
56542;DHT22;42438;53.174;6.730;2024-03-17T02:37:42;3.50;99.90
56542;DHT22;42438;53.174;6.730;2024-03-17T02:40:12;2.60;1.00
56542;DHT22;42438;53.174;6.730;2024-03-17T02:42:44;2.60;1.00
56542;DHT22;42438;53.174;6.730;2024-03-17T02:45:15;2.50;1.00
56542;DHT22;42438;53.174;6.730;2024-03-17T02:47:46;2.30;1.00
56542;DHT22;42438;53.174;6.730;2024-03-17T02:50:16;2.30;1.00
56542;DHT22;42438;53.174;6.730;2024-03-17T02:52:47;2.40;1.00
56542;DHT22;42438;53.174;6.730;2024-03-17T02:55:17;2.60;56.40
56542;DHT22;42438;53.174;6.730;2024-03-17T02:57:48;2.60;99.90
56542;DHT22;42438;53.174;6.730;2024-03-17T03:00:19;2.30;99.90
56542;DHT22;42438;53.174;6.730;2024-03-17T03:02:50;2.60;99.90
56542;DHT22;42438;53.174;6.730;2024-03-17T03:05:20;2.30;99.90
56542;DHT22;42438;53.174;6.730;2024-03-17T03:07:51;2.60;99.90
56542;DHT22;42438;53.174;6.730;2024-03-17T03:10:22;3.70;99.90
56542;DHT22;42438;53.174;6.730;2024-03-17T03:12:53;2.30;99.90
56542;DHT22;42438;53.174;6.730;2024-03-17T03:15:23;3.60;1.00
56542;DHT22;42438;53.174;6.730;2024-03-17T03:17:54;2.40;1.00
56542;DHT22;42438;53.174;6.730;2024-03-17T03:20:24;2.50;1.00
56542;DHT22;42438;53.174;6.730;2024-03-17T03:22:55;3.90;1.00
56542;DHT22;42438;53.174;6.730;2024-03-17T03:25:26;3.20;1.00
56542;DHT22;42438;53.174;6.730;2024-03-17T03:27:57;2.90;17.20
56542;DHT22;42438;53.174;6.730;2024-03-17T03:30:28;3.90;52.30
56542;DHT22;42438;53.174;6.730;2024-03-17T03:32:58;2.80;84.60
56542;DHT22;42438;53.174;6.730;2024-03-17T03:35:29;3.30;99.90
56542;DHT22;42438;53.174;6.730;2024-03-17T03:38:00;3.20;99.90
56542;DHT22;42438;53.174;6.730;2024-03-17T03:40:31;3.30;99.90
56542;DHT22;42438;53.174;6.730;2024-03-17T03:43:03;3.50;99.90
56542;DHT22;42438;53.174;6.730;2024-03-17T03:45:34;3.50;99.90
56542;DHT22;42438;53.174;6.730;2024-03-17T03:48:05;3.60;99.90
56542;DHT22;42438;53.174;6.730;2024-03-17T03:50:39;3.30;99.90
56542;DHT22;42438;53.174;6.730;2024-03-17T03:53:10;3.50;99.90
56542;DHT22;42438;53.174;6.730;2024-03-17T03:55:41;3.70;99.90
56542;DHT22;42438;53.174;6.730;2024-03-17T03:58:12;3.50;99.90
56542;DHT22;42438;53.174;6.730;2024-03-17T04:00:43;3.90;99.90
56542;DHT22;42438;53.174;6.730;2024-03-17T04:03:13;3.70;99.90
56542;DHT22;42438;53.174;6.730;2024-03-17T04:05:44;3.90;99.90
56542;DHT22;42438;53.174;6.730;2024-03-17T04:08:14;4.50;99.90
56542;DHT22;42438;53.174;6.730;2024-03-17T04:10:45;3.70;99.90
56542;DHT22;42438;53.174;6.730;2024-03-17T04:13:15;3.60;99.90
56542;DHT22;42438;53.174;6.730;2024-03-17T04:15:46;3.60;99.90
56542;DHT22;42438;53.174;6.730;2024-03-17T04:18:16;4.10;99.90
56542;DHT22;42438;53.174;6.730;2024-03-17T04:20:48;5.20;99.90
56542;DHT22;42438;53.174;6.730;2024-03-17T04:23:21;4.00;99.90
56542;DHT22;42438;53.174;6.730;2024-03-17T04:25:53;3.80;99.90
56542;DHT22;42438;53.174;6.730;2024-03-17T04:28:23;3.70;99.90
56542;DHT22;42438;53.174;6.730;2024-03-17T04:31:02;3.80;99.90
56542;DHT22;42438;53.174;6.730;2024-03-17T04:33:32;4.00;99.90
56542;DHT22;42438;53.174;6.730;2024-03-17T04:36:03;4.20;99.90
56542;DHT22;42438;53.174;6.730;2024-03-17T04:38:34;4.20;99.90
56542;DHT22;42438;53.174;6.730;2024-03-17T04:41:04;4.00;99.90
56542;DHT22;42438;53.174;6.730;2024-03-17T04:43:35;3.80;99.90
56542;DHT22;42438;53.174;6.730;2024-03-17T04:46:05;4.20;99.90
56542;DHT22;42438;53.174;6.730;2024-03-17T04:48:37;4.30;99.90
56542;DHT22;42438;53.174;6.730;2024-03-17T04:51:08;4.10;99.90
56542;DHT22;42438;53.174;6.730;2024-03-17T04:53:44;4.10;99.90
56542;DHT22;42438;53.174;6.730;2024-03-17T04:56:15;3.90;99.90
56542;DHT22;42438;53.174;6.730;2024-03-17T04:58:46;3.90;99.90
56542;DHT22;42438;53.174;6.730;2024-03-17T05:01:16;4.20;99.90
56542;DHT22;42438;53.174;6.730;2024-03-17T05:03:47;4.30;99.90
56542;DHT22;42438;53.174;6.730;2024-03-17T05:06:17;3.90;99.90
56542;DHT22;42438;53.174;6.730;2024-03-17T05:08:48;4.30;99.90
56542;DHT22;42438;53.174;6.730;2024-03-17T05:11:18;4.30;99.90
56542;DHT22;42438;53.174;6.730;2024-03-17T05:13:50;3.90;99.90
56542;DHT22;42438;53.174;6.730;2024-03-17T05:16:21;4.00;99.90
56542;DHT22;42438;53.174;6.730;2024-03-17T05:18:52;3.90;99.90
56542;DHT22;42438;53.174;6.730;2024-03-17T05:21:23;4.30;99.90
56542;DHT22;42438;53.174;6.730;2024-03-17T05:23:54;4.10;99.90
56542;DHT22;42438;53.174;6.730;2024-03-17T05:26:24;4.30;99.90
56542;DHT22;42438;53.174;6.730;2024-03-17T05:28:55;4.30;99.90
56542;DHT22;42438;53.174;6.730;2024-03-17T05:31:25;5.80;99.90
56542;DHT22;42438;53.174;6.730;2024-03-17T05:33:56;4.10;99.90
56542;DHT22;42438;53.174;6.730;2024-03-17T05:36:27;5.50;99.90
56542;DHT22;42438;53.174;6.730;2024-03-17T05:39:02;4.00;99.90
56542;DHT22;42438;53.174;6.730;2024-03-17T05:41:33;4.40;99.90
56542;DHT22;42438;53.174;6.730;2024-03-17T05:44:04;4.40;99.90
56542;DHT22;42438;53.174;6.730;2024-03-17T05:46:34;4.10;99.90
56542;DHT22;42438;53.174;6.730;2024-03-17T05:49:05;4.90;99.90
56542;DHT22;42438;53.174;6.730;2024-03-17T05:51:37;4.60;99.90
56542;DHT22;42438;53.174;6.730;2024-03-17T05:54:07;4.30;99.90
56542;DHT22;42438;53.174;6.730;2024-03-17T05:56:38;4.30;99.90
56542;DHT22;42438;53.174;6.730;2024-03-17T05:59:09;4.40;99.90
56542;DHT22;42438;53.174;6.730;2024-03-17T06:01:39;4.50;99.90
56542;DHT22;42438;53.174;6.730;2024-03-17T06:04:10;4.30;99.90
56542;DHT22;42438;53.174;6.730;2024-03-17T06:06:41;4.90;99.90
56542;DHT22;42438;53.174;6.730;2024-03-17T06:09:11;4.70;99.90
56542;DHT22;42438;53.174;6.730;2024-03-17T06:11:42;4.80;99.90
56542;DHT22;42438;53.174;6.730;2024-03-17T06:14:13;4.70;99.90
56542;DHT22;42438;53.174;6.730;2024-03-17T06:16:43;4.40;99.90
56542;DHT22;42438;53.174;6.730;2024-03-17T06:19:14;5.50;99.90
56542;DHT22;42438;53.174;6.730;2024-03-17T06:21:45;4.80;99.90
56542;DHT22;42438;53.174;6.730;2024-03-17T06:24:15;4.60;99.90
56542;DHT22;42438;53.174;6.730;2024-03-17T06:26:46;4.80;99.90
56542;DHT22;42438;53.174;6.730;2024-03-17T06:29:18;4.50;99.90
56542;DHT22;42438;53.174;6.730;2024-03-17T06:31:49;4.50;99.90
56542;DHT22;42438;53.174;6.730;2024-03-17T06:34:20;4.50;99.90
56542;DHT22;42438;53.174;6.730;2024-03-17T06:36:50;4.80;99.90
56542;DHT22;42438;53.174;6.730;2024-03-17T06:39:21;4.80;99.90
56542;DHT22;42438;53.174;6.730;2024-03-17T06:41:51;4.90;99.90
56542;DHT22;42438;53.174;6.730;2024-03-17T06:44:22;4.70;99.90
56542;DHT22;42438;53.174;6.730;2024-03-17T06:46:57;5.10;99.90
56542;DHT22;42438;53.174;6.730;2024-03-17T06:49:28;5.00;99.90
56542;DHT22;42438;53.174;6.730;2024-03-17T06:52:01;6.80;99.90
56542;DHT22;42438;53.174;6.730;2024-03-17T06:54:31;6.90;99.90
56542;DHT22;42438;53.174;6.730;2024-03-17T06:57:03;5.50;99.90
56542;DHT22;42438;53.174;6.730;2024-03-17T06:59:34;5.70;99.90
56542;DHT22;42438;53.174;6.730;2024-03-17T07:02:05;5.40;99.90
56542;DHT22;42438;53.174;6.730;2024-03-17T07:04:35;5.60;99.90
56542;DHT22;42438;53.174;6.730;2024-03-17T07:07:06;5.90;99.90
56542;DHT22;42438;53.174;6.730;2024-03-17T07:09:36;5.80;99.90
56542;DHT22;42438;53.174;6.730;2024-03-17T07:12:08;5.90;99.90
56542;DHT22;42438;53.174;6.730;2024-03-17T07:14:38;5.90;99.90
56542;DHT22;42438;53.174;6.730;2024-03-17T07:17:09;6.80;99.90
56542;DHT22;42438;53.174;6.730;2024-03-17T07:19:39;6.10;99.90
56542;DHT22;42438;53.174;6.730;2024-03-17T07:22:10;6.10;99.90
56542;DHT22;42438;53.174;6.730;2024-03-17T07:24:41;6.40;99.90
56542;DHT22;42438;53.174;6.730;2024-03-17T07:27:14;6.50;99.90
56542;DHT22;42438;53.174;6.730;2024-03-17T07:29:44;6.30;1.00
56542;DHT22;42438;53.174;6.730;2024-03-17T07:32:15;6.30;99.90
56542;DHT22;42438;53.174;6.730;2024-03-17T07:34:46;6.30;96.80
56542;DHT22;42438;53.174;6.730;2024-03-17T07:37:16;6.70;1.00
56542;DHT22;42438;53.174;6.730;2024-03-17T07:39:47;6.70;1.00
56542;DHT22;42438;53.174;6.730;2024-03-17T07:42:19;6.90;99.90
56542;DHT22;42438;53.174;6.730;2024-03-17T07:44:50;6.80;99.90
56542;DHT22;42438;53.174;6.730;2024-03-17T07:47:21;7.00;78.60
56542;DHT22;42438;53.174;6.730;2024-03-17T07:49:51;7.00;99.90
56542;DHT22;42438;53.174;6.730;2024-03-17T07:52:22;7.10;99.90
56542;DHT22;42438;53.174;6.730;2024-03-17T07:54:53;7.40;1.00
56542;DHT22;42438;53.174;6.730;2024-03-17T07:57:23;7.50;99.90
56542;DHT22;42438;53.174;6.730;2024-03-17T07:59:54;7.60;34.60
56542;DHT22;42438;53.174;6.730;2024-03-17T08:02:24;7.50;99.90
56542;DHT22;42438;53.174;6.730;2024-03-17T08:04:55;7.50;8.60
56542;DHT22;42438;53.174;6.730;2024-03-17T08:07:25;7.60;1.00
56542;DHT22;42438;53.174;6.730;2024-03-17T08:09:56;7.60;99.90
56542;DHT22;42438;53.174;6.730;2024-03-17T08:12:28;7.80;99.90
56542;DHT22;42438;53.174;6.730;2024-03-17T08:14:59;7.80;47.70
56542;DHT22;42438;53.174;6.730;2024-03-17T08:17:30;7.70;1.00
56542;DHT22;42438;53.174;6.730;2024-03-17T08:20:01;7.90;1.00
56542;DHT22;42438;53.174;6.730;2024-03-17T08:22:31;7.70;99.90
56542;DHT22;42438;53.174;6.730;2024-03-17T08:25:02;7.90;99.90
56542;DHT22;42438;53.174;6.730;2024-03-17T08:27:35;7.90;99.90
56542;DHT22;42438;53.174;6.730;2024-03-17T08:30:05;7.90;99.90
56542;DHT22;42438;53.174;6.730;2024-03-17T08:32:36;8.00;99.90
56542;DHT22;42438;53.174;6.730;2024-03-17T08:35:07;8.00;99.90
56542;DHT22;42438;53.174;6.730;2024-03-17T08:37:38;8.10;99.90
56542;DHT22;42438;53.174;6.730;2024-03-17T08:40:08;8.30;84.00
56542;DHT22;42438;53.174;6.730;2024-03-17T08:42:39;8.40;1.00
56542;DHT22;42438;53.174;6.730;2024-03-17T08:45:11;8.30;1.00
56542;DHT22;42438;53.174;6.730;2024-03-17T08:47:42;8.40;99.90
56542;DHT22;42438;53.174;6.730;2024-03-17T08:50:12;8.40;99.90
56542;DHT22;42438;53.174;6.730;2024-03-17T08:52:43;8.50;99.90
56542;DHT22;42438;53.174;6.730;2024-03-17T08:55:13;8.60;99.90
56542;DHT22;42438;53.174;6.730;2024-03-17T08:57:44;8.70;99.90
56542;DHT22;42438;53.174;6.730;2024-03-17T09:00:15;8.80;99.90
56542;DHT22;42438;53.174;6.730;2024-03-17T09:02:45;8.90;99.90
56542;DHT22;42438;53.174;6.730;2024-03-17T09:05:16;9.00;6.20
56542;DHT22;42438;53.174;6.730;2024-03-17T09:07:46;9.20;1.00
56542;DHT22;42438;53.174;6.730;2024-03-17T09:10:17;9.10;1.00
56542;DHT22;42438;53.174;6.730;2024-03-17T09:12:47;9.00;1.00
56542;DHT22;42438;53.174;6.730;2024-03-17T09:15:18;9.00;99.90
56542;DHT22;42438;53.174;6.730;2024-03-17T09:17:48;9.00;99.90
56542;DHT22;42438;53.174;6.730;2024-03-17T09:20:19;9.20;99.90
56542;DHT22;42438;53.174;6.730;2024-03-17T09:22:50;9.20;99.90
56542;DHT22;42438;53.174;6.730;2024-03-17T09:25:20;9.20;99.90
56542;DHT22;42438;53.174;6.730;2024-03-17T09:27:51;9.50;99.90
56542;DHT22;42438;53.174;6.730;2024-03-17T09:30:21;9.30;99.90
56542;DHT22;42438;53.174;6.730;2024-03-17T09:32:52;9.40;99.90
56542;DHT22;42438;53.174;6.730;2024-03-17T09:35:22;9.60;99.90
56542;DHT22;42438;53.174;6.730;2024-03-17T09:37:53;9.70;99.90
56542;DHT22;42438;53.174;6.730;2024-03-17T09:40:24;9.70;99.90
56542;DHT22;42438;53.174;6.730;2024-03-17T09:42:55;9.90;99.90
56542;DHT22;42438;53.174;6.730;2024-03-17T09:45:25;10.10;99.90
56542;DHT22;42438;53.174;6.730;2024-03-17T09:47:56;10.10;63.60
56542;DHT22;42438;53.174;6.730;2024-03-17T09:50:27;10.10;2.40
56542;DHT22;42438;53.174;6.730;2024-03-17T09:52:57;10.20;1.00
56542;DHT22;42438;53.174;6.730;2024-03-17T09:55:28;10.30;1.00
56542;DHT22;42438;53.174;6.730;2024-03-17T09:58:00;10.50;1.00
56542;DHT22;42438;53.174;6.730;2024-03-17T10:00:31;10.60;3.80
56542;DHT22;42438;53.174;6.730;2024-03-17T10:03:01;10.70;1.00
56542;DHT22;42438;53.174;6.730;2024-03-17T10:05:32;10.70;1.00
56542;DHT22;42438;53.174;6.730;2024-03-17T10:08:03;10.70;1.00
56542;DHT22;42438;53.174;6.730;2024-03-17T10:10:33;10.80;1.00
56542;DHT22;42438;53.174;6.730;2024-03-17T10:13:04;10.80;1.00
56542;DHT22;42438;53.174;6.730;2024-03-17T10:15:47;10.80;1.00
56542;DHT22;42438;53.174;6.730;2024-03-17T10:18:22;11.00;1.00
56542;DHT22;42438;53.174;6.730;2024-03-17T10:20:55;10.90;1.00
56542;DHT22;42438;53.174;6.730;2024-03-17T10:23:27;11.00;99.90
56542;DHT22;42438;53.174;6.730;2024-03-17T10:25:58;11.00;99.90
56542;DHT22;42438;53.174;6.730;2024-03-17T10:28:29;11.10;99.90
56542;DHT22;42438;53.174;6.730;2024-03-17T10:31:00;11.10;99.90
56542;DHT22;42438;53.174;6.730;2024-03-17T10:33:30;11.30;99.90
56542;DHT22;42438;53.174;6.730;2024-03-17T10:36:01;11.30;99.90
56542;DHT22;42438;53.174;6.730;2024-03-17T10:38:32;11.40;99.90
56542;DHT22;42438;53.174;6.730;2024-03-17T10:41:05;11.40;99.90
56542;DHT22;42438;53.174;6.730;2024-03-17T10:43:36;11.50;99.90
56542;DHT22;42438;53.174;6.730;2024-03-17T10:46:08;11.60;99.90
56542;DHT22;42438;53.174;6.730;2024-03-17T10:48:41;11.80;99.90
56542;DHT22;42438;53.174;6.730;2024-03-17T10:51:14;11.90;99.90
56542;DHT22;42438;53.174;6.730;2024-03-17T10:53:47;12.10;99.90
56542;DHT22;42438;53.174;6.730;2024-03-17T10:56:19;12.10;99.90
56542;DHT22;42438;53.174;6.730;2024-03-17T10:58:50;12.10;99.90
56542;DHT22;42438;53.174;6.730;2024-03-17T11:01:23;12.10;99.90
56542;DHT22;42438;53.174;6.730;2024-03-17T11:03:54;12.10;99.90
56542;DHT22;42438;53.174;6.730;2024-03-17T11:06:25;12.10;99.90
56542;DHT22;42438;53.174;6.730;2024-03-17T11:08:59;12.10;99.90
56542;DHT22;42438;53.174;6.730;2024-03-17T11:11:36;12.10;90.50
56542;DHT22;42438;53.174;6.730;2024-03-17T11:14:18;12.10;66.50
56542;DHT22;42438;53.174;6.730;2024-03-17T11:16:50;12.10;78.70
56542;DHT22;42438;53.174;6.730;2024-03-17T11:19:20;12.10;54.40
56542;DHT22;42438;53.174;6.730;2024-03-17T11:21:51;12.00;18.60
56542;DHT22;42438;53.174;6.730;2024-03-17T11:24:21;12.00;25.70
56542;DHT22;42438;53.174;6.730;2024-03-17T11:26:52;12.10;14.30
56542;DHT22;42438;53.174;6.730;2024-03-17T11:29:26;12.10;23.20
56542;DHT22;42438;53.174;6.730;2024-03-17T11:31:56;12.20;1.00
56542;DHT22;42438;53.174;6.730;2024-03-17T11:34:31;12.30;1.00
56542;DHT22;42438;53.174;6.730;2024-03-17T11:37:02;12.20;1.00
56542;DHT22;42438;53.174;6.730;2024-03-17T11:39:57;12.20;1.00
56542;DHT22;42438;53.174;6.730;2024-03-17T11:42:28;12.30;1.00
56542;DHT22;42438;53.174;6.730;2024-03-17T11:45:00;12.40;1.00
56542;DHT22;42438;53.174;6.730;2024-03-17T11:47:37;12.50;1.00
56542;DHT22;42438;53.174;6.730;2024-03-17T11:50:09;12.60;1.00
56542;DHT22;42438;53.174;6.730;2024-03-17T11:52:43;12.60;1.00
56542;DHT22;42438;53.174;6.730;2024-03-17T11:55:17;12.60;1.00
56542;DHT22;42438;53.174;6.730;2024-03-17T11:57:54;12.70;1.00
56542;DHT22;42438;53.174;6.730;2024-03-17T12:00:25;12.70;1.00
56542;DHT22;42438;53.174;6.730;2024-03-17T12:02:56;12.80;1.00
56542;DHT22;42438;53.174;6.730;2024-03-17T12:05:28;12.80;1.00
56542;DHT22;42438;53.174;6.730;2024-03-17T12:07:59;13.00;1.00
56542;DHT22;42438;53.174;6.730;2024-03-17T12:10:29;13.00;1.00
56542;DHT22;42438;53.174;6.730;2024-03-17T12:13:00;13.00;1.00
56542;DHT22;42438;53.174;6.730;2024-03-17T12:15:31;12.90;1.00
56542;DHT22;42438;53.174;6.730;2024-03-17T12:18:02;12.80;1.00
56542;DHT22;42438;53.174;6.730;2024-03-17T12:20:33;12.80;1.00
56542;DHT22;42438;53.174;6.730;2024-03-17T12:23:04;12.70;1.00
56542;DHT22;42438;53.174;6.730;2024-03-17T12:25:34;12.60;1.00
56542;DHT22;42438;53.174;6.730;2024-03-17T12:28:11;12.50;1.00
56542;DHT22;42438;53.174;6.730;2024-03-17T12:30:45;12.60;1.00
56542;DHT22;42438;53.174;6.730;2024-03-17T12:33:16;12.70;1.00
56542;DHT22;42438;53.174;6.730;2024-03-17T12:35:47;12.70;1.00
56542;DHT22;42438;53.174;6.730;2024-03-17T12:38:23;12.70;1.00
56542;DHT22;42438;53.174;6.730;2024-03-17T12:40:54;12.80;1.00
56542;DHT22;42438;53.174;6.730;2024-03-17T12:43:24;12.80;1.00
56542;DHT22;42438;53.174;6.730;2024-03-17T12:45:56;12.80;1.00
56542;DHT22;42438;53.174;6.730;2024-03-17T12:48:27;12.90;1.00
56542;DHT22;42438;53.174;6.730;2024-03-17T12:50:57;13.00;1.00
56542;DHT22;42438;53.174;6.730;2024-03-17T12:53:28;13.20;1.00
56542;DHT22;42438;53.174;6.730;2024-03-17T12:55:58;13.30;1.00
56542;DHT22;42438;53.174;6.730;2024-03-17T12:58:48;13.30;1.00
56542;DHT22;42438;53.174;6.730;2024-03-17T13:01:37;13.20;1.00
56542;DHT22;42438;53.174;6.730;2024-03-17T13:04:07;13.20;1.00
56542;DHT22;42438;53.174;6.730;2024-03-17T13:06:38;13.20;1.00
56542;DHT22;42438;53.174;6.730;2024-03-17T13:09:09;13.10;1.00
56542;DHT22;42438;53.174;6.730;2024-03-17T13:11:40;13.20;1.00
56542;DHT22;42438;53.174;6.730;2024-03-17T13:14:11;13.10;99.90
56542;DHT22;42438;53.174;6.730;2024-03-17T13:16:45;13.00;99.90
56542;DHT22;42438;53.174;6.730;2024-03-17T13:19:17;13.00;99.90
56542;DHT22;42438;53.174;6.730;2024-03-17T13:21:47;12.90;99.90
56542;DHT22;42438;53.174;6.730;2024-03-17T13:24:18;12.80;99.90
56542;DHT22;42438;53.174;6.730;2024-03-17T13:26:49;12.70;99.90
56542;DHT22;42438;53.174;6.730;2024-03-17T13:29:21;12.70;99.90
56542;DHT22;42438;53.174;6.730;2024-03-17T13:31:51;12.70;99.90
56542;DHT22;42438;53.174;6.730;2024-03-17T13:34:22;12.70;99.90
56542;DHT22;42438;53.174;6.730;2024-03-17T13:36:53;12.70;99.90
56542;DHT22;42438;53.174;6.730;2024-03-17T13:39:28;12.70;99.90
56542;DHT22;42438;53.174;6.730;2024-03-17T13:41:59;12.70;99.90
56542;DHT22;42438;53.174;6.730;2024-03-17T13:44:33;12.70;99.90
56542;DHT22;42438;53.174;6.730;2024-03-17T13:47:04;12.60;99.90
56542;DHT22;42438;53.174;6.730;2024-03-17T13:49:34;12.60;99.90
56542;DHT22;42438;53.174;6.730;2024-03-17T13:52:05;12.60;99.90
56542;DHT22;42438;53.174;6.730;2024-03-17T13:54:36;12.50;99.90
56542;DHT22;42438;53.174;6.730;2024-03-17T13:57:06;12.50;99.90
56542;DHT22;42438;53.174;6.730;2024-03-17T13:59:37;12.50;99.90
56542;DHT22;42438;53.174;6.730;2024-03-17T14:02:09;13.30;99.90
56542;DHT22;42438;53.174;6.730;2024-03-17T14:04:42;12.60;99.90
56542;DHT22;42438;53.174;6.730;2024-03-17T14:07:12;12.60;99.90
56542;DHT22;42438;53.174;6.730;2024-03-17T14:09:43;12.50;99.90
56542;DHT22;42438;53.174;6.730;2024-03-17T14:12:13;12.50;99.90
56542;DHT22;42438;53.174;6.730;2024-03-17T14:14:44;12.50;99.90
56542;DHT22;42438;53.174;6.730;2024-03-17T14:17:14;12.50;99.90
56542;DHT22;42438;53.174;6.730;2024-03-17T14:19:45;12.50;99.90
56542;DHT22;42438;53.174;6.730;2024-03-17T14:22:16;12.50;99.90
56542;DHT22;42438;53.174;6.730;2024-03-17T14:24:46;12.50;99.90
56542;DHT22;42438;53.174;6.730;2024-03-17T14:27:17;12.50;99.90
56542;DHT22;42438;53.174;6.730;2024-03-17T14:29:47;12.50;99.90
56542;DHT22;42438;53.174;6.730;2024-03-17T14:32:18;12.40;99.90
56542;DHT22;42438;53.174;6.730;2024-03-17T14:34:48;12.40;99.90
56542;DHT22;42438;53.174;6.730;2024-03-17T14:37:19;12.40;99.90
56542;DHT22;42438;53.174;6.730;2024-03-17T14:39:53;12.30;99.90
56542;DHT22;42438;53.174;6.730;2024-03-17T14:42:23;12.30;99.90
56542;DHT22;42438;53.174;6.730;2024-03-17T14:44:55;12.30;99.90
56542;DHT22;42438;53.174;6.730;2024-03-17T14:47:26;12.20;99.90
56542;DHT22;42438;53.174;6.730;2024-03-17T14:49:56;12.20;99.90
56542;DHT22;42438;53.174;6.730;2024-03-17T14:52:27;12.20;99.90
56542;DHT22;42438;53.174;6.730;2024-03-17T14:54:57;12.30;99.90
56542;DHT22;42438;53.174;6.730;2024-03-17T14:57:28;12.20;99.90
56542;DHT22;42438;53.174;6.730;2024-03-17T14:59:59;12.20;99.90
56542;DHT22;42438;53.174;6.730;2024-03-17T15:02:29;12.20;99.90
56542;DHT22;42438;53.174;6.730;2024-03-17T15:05:00;12.20;99.90
56542;DHT22;42438;53.174;6.730;2024-03-17T15:07:30;12.20;99.90
56542;DHT22;42438;53.174;6.730;2024-03-17T15:10:01;12.10;99.90
56542;DHT22;42438;53.174;6.730;2024-03-17T15:12:33;12.10;99.90
56542;DHT22;42438;53.174;6.730;2024-03-17T15:15:04;12.00;99.90
56542;DHT22;42438;53.174;6.730;2024-03-17T15:17:38;12.00;99.90
56542;DHT22;42438;53.174;6.730;2024-03-17T15:20:09;11.90;99.90
56542;DHT22;42438;53.174;6.730;2024-03-17T15:22:49;11.90;99.90
56542;DHT22;42438;53.174;6.730;2024-03-17T15:25:20;11.80;99.90
56542;DHT22;42438;53.174;6.730;2024-03-17T15:27:51;11.80;99.90
56542;DHT22;42438;53.174;6.730;2024-03-17T15:30:21;11.80;99.90
56542;DHT22;42438;53.174;6.730;2024-03-17T15:32:55;11.80;99.90
56542;DHT22;42438;53.174;6.730;2024-03-17T15:35:26;11.70;99.90
56542;DHT22;42438;53.174;6.730;2024-03-17T15:38:00;11.70;99.90
56542;DHT22;42438;53.174;6.730;2024-03-17T15:40:33;11.70;99.90
56542;DHT22;42438;53.174;6.730;2024-03-17T15:43:05;11.70;99.90
56542;DHT22;42438;53.174;6.730;2024-03-17T15:45:36;11.70;99.90
56542;DHT22;42438;53.174;6.730;2024-03-17T15:48:08;11.70;99.90
56542;DHT22;42438;53.174;6.730;2024-03-17T15:50:39;11.60;99.90
56542;DHT22;42438;53.174;6.730;2024-03-17T15:53:10;11.60;99.90
56542;DHT22;42438;53.174;6.730;2024-03-17T15:55:40;11.60;99.90
56542;DHT22;42438;53.174;6.730;2024-03-17T15:58:11;11.60;99.90
56542;DHT22;42438;53.174;6.730;2024-03-17T16:00:41;11.60;99.90
56542;DHT22;42438;53.174;6.730;2024-03-17T16:03:13;11.50;99.90
56542;DHT22;42438;53.174;6.730;2024-03-17T16:05:46;11.50;99.90
56542;DHT22;42438;53.174;6.730;2024-03-17T16:08:18;11.50;99.90
56542;DHT22;42438;53.174;6.730;2024-03-17T16:10:53;11.50;99.90